createdAt,value
2022-11-10T00:01:56.934Z,89.56
2022-11-10T00:04:42.864Z,89.24
2022-11-10T00:07:29.128Z,89.04
2022-11-10T00:10:15.715Z,89.22
2022-11-10T00:13:02.879Z,89.83
2022-11-10T00:15:49.204Z,90.06
2022-11-10T00:18:35.615Z,89.02
2022-11-10T00:21:21.669Z,89.61
2022-11-10T00:24:07.753Z,89.14
2022-11-10T00:26:54.796Z,89.39
2022-11-10T00:29:41.635Z,89.30
2022-11-10T00:32:27.735Z,89.46
2022-11-10T00:35:13.898Z,89.81
2022-11-10T00:37:59.999Z,90.59
2022-11-10T00:40:46.716Z,91.34
2022-11-10T00:43:33.105Z,89.95
2022-11-10T00:46:19.884Z,89.62
2022-11-10T00:49:06.081Z,89.73
2022-11-10T00:51:52.296Z,89.51
2022-11-10T00:54:38.281Z,89.42
2022-11-10T00:57:24.277Z,89.30
2022-11-10T01:00:10.545Z,89.51
2022-11-10T01:02:57.111Z,89.30
2022-11-10T01:05:44.185Z,89.23
2022-11-10T01:08:30.094Z,89.40
2022-11-10T01:11:23.614Z,89.36
2022-11-10T01:14:09.915Z,89.25
2022-11-10T01:16:56.018Z,89.17
2022-11-10T01:19:42.449Z,89.34
2022-11-10T01:22:28.526Z,91.93
2022-11-10T01:25:14.857Z,93.34
2022-11-10T01:28:00.981Z,92.45
2022-11-10T01:30:47.077Z,93.51
2022-11-10T01:33:33.629Z,91.65
2022-11-10T01:36:19.812Z,91.05
2022-11-10T01:39:05.893Z,91.04
2022-11-10T01:41:51.975Z,91.71
2022-11-10T01:44:39.548Z,90.82
2022-11-10T01:47:25.934Z,90.02
2022-11-10T01:50:12.178Z,89.61
2022-11-10T01:53:01.378Z,90.41
2022-11-10T01:55:47.945Z,90.16
2022-11-10T01:58:37.712Z,90.86
2022-11-10T02:01:24.380Z,91.45
2022-11-10T02:04:13.528Z,91.42
2022-11-10T02:06:59.629Z,91.31
2022-11-10T02:09:46.344Z,91.57
2022-11-10T02:12:32.562Z,90.64
2022-11-10T02:15:18.877Z,91.18
2022-11-10T02:18:05.397Z,89.95
2022-11-10T02:20:51.319Z,89.84
2022-11-10T02:23:37.450Z,90.91
2022-11-10T02:26:25.932Z,90.18
2022-11-10T02:29:12.662Z,89.91
2022-11-10T02:31:58.835Z,89.75
2022-11-10T02:34:44.963Z,90.41
2022-11-10T02:37:31.361Z,92.06
2022-11-10T02:40:17.649Z,91.83
2022-11-10T02:43:06.525Z,92.54
2022-11-10T02:45:52.476Z,89.68
2022-11-10T02:48:38.807Z,90.89
2022-11-10T02:51:24.979Z,89.84
2022-11-10T02:54:10.893Z,89.81
2022-11-10T02:56:56.780Z,89.71
2022-11-10T02:59:47.251Z,89.08
2022-11-10T03:02:33.849Z,88.42
2022-11-10T03:05:20.003Z,88.30
2022-11-10T03:08:06.060Z,87.90
2022-11-10T03:10:56.475Z,87.25
2022-11-10T03:14:00.249Z,87.38
2022-11-10T03:16:47.356Z,87.42
2022-11-10T03:19:33.847Z,87.61
2022-11-10T03:22:19.680Z,88.96
2022-11-10T03:25:06.374Z,89.21
2022-11-10T03:27:52.239Z,88.63
2022-11-10T03:30:38.940Z,87.39
2022-11-10T03:33:25.340Z,87.52
2022-11-10T03:36:11.843Z,90.26
2022-11-10T03:38:57.899Z,92.06
2022-11-10T03:41:43.863Z,90.72
2022-11-10T03:44:29.777Z,92.03
2022-11-10T03:47:15.671Z,91.59
2022-11-10T03:50:01.660Z,91.90
2022-11-10T03:52:47.838Z,91.56
2022-11-10T03:55:33.882Z,90.99
2022-11-10T03:58:19.831Z,91.26
2022-11-10T04:01:05.784Z,91.09
2022-11-10T04:03:52.244Z,91.74
2022-11-10T04:06:37.986Z,92.57
2022-11-10T04:09:24.110Z,93.47
2022-11-10T04:12:10.436Z,92.46
2022-11-10T04:14:56.534Z,93.19
2022-11-10T04:17:49.431Z,92.58
2022-11-10T04:20:35.778Z,92.60
2022-11-10T04:23:23.730Z,92.14
2022-11-10T04:26:12.399Z,93.02
2022-11-10T04:29:03.111Z,93.53
2022-11-10T04:31:49.064Z,93.05
2022-11-10T04:34:35.074Z,92.45
2022-11-10T04:37:20.820Z,92.51
2022-11-10T04:40:07.233Z,91.87
2022-11-10T04:42:57.475Z,92.34
2022-11-10T04:45:43.955Z,92.31
2022-11-10T04:48:30.619Z,91.48
2022-11-10T04:51:18.381Z,92.64
2022-11-10T04:54:06.557Z,92.56
2022-11-10T04:56:52.246Z,90.82
2022-11-10T04:59:38.387Z,89.59
2022-11-10T05:02:24.677Z,89.69
2022-11-10T05:05:10.530Z,89.39
2022-11-10T05:07:56.661Z,88.87
2022-11-10T05:10:43.579Z,88.87
2022-11-10T05:13:29.824Z,89.34
2022-11-10T05:16:15.780Z,89.08
2022-11-10T05:19:01.738Z,89.06
2022-11-10T05:21:48.095Z,89.23
2022-11-10T05:24:34.582Z,88.78
2022-11-10T05:27:20.698Z,89.20
2022-11-10T05:30:07.857Z,90.50
2022-11-10T05:32:53.851Z,93.85
2022-11-10T05:35:40.041Z,97.61
2022-11-10T05:38:26.321Z,97.39
2022-11-10T05:41:12.630Z,96.12
2022-11-10T05:43:58.501Z,98.59
2022-11-10T05:46:44.502Z,99.54
2022-11-10T05:49:30.519Z,99.14
2022-11-10T05:52:16.468Z,97.32
2022-11-10T05:55:02.841Z,96.31
2022-11-10T05:57:50.856Z,98.31
2022-11-10T06:00:36.695Z,99.76
2022-11-10T06:03:23.157Z,100.00
2022-11-10T06:06:09.436Z,100.00
2022-11-10T06:08:57.035Z,100.00
2022-11-10T06:11:43.168Z,100.00
2022-11-10T06:14:29.356Z,99.80
2022-11-10T06:17:15.367Z,99.41
2022-11-10T06:20:01.382Z,99.94
2022-11-10T06:23:16.856Z,100.00
2022-11-10T06:26:03.019Z,99.69
2022-11-10T06:28:49.106Z,99.95
2022-11-10T06:31:35.110Z,100.00
2022-11-10T06:34:21.088Z,100.00
2022-11-10T06:37:07.524Z,99.78
2022-11-10T06:39:54.107Z,99.47
2022-11-10T06:42:40.361Z,99.87
2022-11-10T06:45:27.152Z,96.94
2022-11-10T06:48:13.883Z,95.52
2022-11-10T06:51:01.048Z,96.90
2022-11-10T06:53:47.065Z,97.19
2022-11-10T06:56:33.119Z,97.70
2022-11-10T06:59:19.276Z,98.68
2022-11-10T07:02:05.612Z,98.23
2022-11-10T07:04:51.504Z,96.80
2022-11-10T07:07:37.863Z,95.94
2022-11-10T07:10:24.147Z,97.69
2022-11-10T07:13:10.941Z,97.05
2022-11-10T07:15:57.009Z,95.58
2022-11-10T07:18:43.039Z,95.56
2022-11-10T07:21:29.199Z,95.06
2022-11-10T07:24:15.426Z,95.29
2022-11-10T07:27:01.581Z,96.21
2022-11-10T07:29:47.658Z,96.95
2022-11-10T07:32:33.896Z,97.26
2022-11-10T07:35:20.100Z,97.14
2022-11-10T07:38:08.288Z,96.56
2022-11-10T07:40:55.120Z,95.06
2022-11-10T07:43:41.306Z,95.70
2022-11-10T07:46:27.726Z,96.31
2022-11-10T07:49:13.744Z,88.69
2022-11-10T07:51:59.773Z,89.30
2022-11-10T07:54:45.751Z,93.17
2022-11-10T07:57:33.266Z,94.03
2022-11-10T08:00:19.845Z,94.05
2022-11-10T08:03:08.121Z,93.44
2022-11-10T08:05:57.356Z,92.75
2022-11-10T08:08:43.591Z,91.98
2022-11-10T08:11:32.608Z,92.02
2022-11-10T08:14:18.670Z,89.09
2022-11-10T08:17:04.554Z,91.24
2022-11-10T08:19:50.676Z,92.20
2022-11-10T08:22:36.665Z,92.05
2022-11-10T08:25:22.782Z,91.33
2022-11-10T08:28:10.958Z,91.19
2022-11-10T08:31:01.514Z,89.99
2022-11-10T08:33:50.570Z,90.51
2022-11-10T08:36:36.938Z,87.69
2022-11-10T08:39:38.121Z,81.74
2022-11-10T08:42:25.098Z,87.46
2022-11-10T08:45:11.308Z,87.92
2022-11-10T08:47:58.474Z,86.25
2022-11-10T08:50:44.814Z,86.42
2022-11-10T08:53:30.904Z,86.78
2022-11-10T08:56:16.925Z,86.98
2022-11-10T08:59:02.700Z,86.95
2022-11-10T09:01:49.065Z,86.74
2022-11-10T09:04:35.509Z,86.87
2022-11-10T09:07:21.757Z,86.88
2022-11-10T09:10:08.419Z,86.21
2022-11-10T09:12:58.288Z,85.38
2022-11-10T09:15:44.263Z,85.19
2022-11-10T09:18:31.154Z,85.27
2022-11-10T09:21:17.259Z,84.94
2022-11-10T09:24:03.589Z,84.05
2022-11-10T09:26:49.744Z,83.20
2022-11-10T09:29:35.772Z,84.51
2022-11-10T09:32:21.772Z,83.80
2022-11-10T09:35:07.900Z,84.86
2022-11-10T09:37:54.269Z,84.63
2022-11-10T09:40:58.965Z,85.44
2022-11-10T09:44:13.067Z,85.15
2022-11-10T09:47:00.753Z,84.48
2022-11-10T09:49:51.468Z,83.41
2022-11-10T09:52:37.915Z,84.10
2022-11-10T09:55:32.913Z,84.34
2022-11-10T09:58:21.940Z,84.23
2022-11-10T10:01:08.293Z,83.98
2022-11-10T10:04:10.614Z,84.86
2022-11-10T10:07:25.378Z,84.27
2022-11-10T10:10:23.192Z,84.40
2022-11-10T10:13:30.926Z,85.18
2022-11-10T10:16:24.733Z,85.43
2022-11-10T10:19:34.401Z,83.98
2022-11-10T10:22:29.592Z,83.19
2022-11-10T10:25:21.949Z,82.66
2022-11-10T10:28:23.334Z,83.33
2022-11-10T10:31:19.029Z,82.75
2022-11-10T10:34:11.557Z,81.60
2022-11-10T10:36:57.771Z,80.74
2022-11-10T10:39:47.191Z,80.57
2022-11-10T10:42:35.496Z,80.35
2022-11-10T10:45:29.099Z,80.85
2022-11-10T10:48:27.401Z,81.03
2022-11-10T10:51:30.827Z,80.11
2022-11-10T10:54:26.869Z,78.97
2022-11-10T10:57:26.948Z,80.70
2022-11-10T11:00:22.056Z,82.31
2022-11-10T11:03:14.153Z,80.65
2022-11-10T11:06:03.987Z,80.50
2022-11-10T11:08:58.301Z,79.24
2022-11-10T11:11:46.544Z,79.40
2022-11-10T11:14:32.934Z,79.87
2022-11-10T11:17:22.585Z,79.93
2022-11-10T11:20:15.287Z,79.58
2022-11-10T11:23:15.741Z,79.24
2022-11-10T11:26:14.711Z,79.77
2022-11-10T11:29:42.352Z,80.09
2022-11-10T11:32:56.826Z,80.67
2022-11-10T11:36:03.404Z,81.03
2022-11-10T11:39:16.097Z,80.53
2022-11-10T11:42:15.293Z,79.64
2022-11-10T11:45:13.670Z,78.42
2022-11-10T11:48:05.851Z,79.07
2022-11-10T11:51:04.235Z,79.24
2022-11-10T11:54:11.404Z,79.31
2022-11-10T11:57:13.244Z,78.81
2022-11-10T12:00:17.659Z,79.27
2022-11-10T12:03:25.528Z,79.57
2022-11-10T12:06:20.705Z,79.78
2022-11-10T12:09:25.049Z,79.53
2022-11-10T12:12:35.826Z,79.89
2022-11-10T12:16:00.163Z,80.29
2022-11-10T12:18:51.542Z,80.49
2022-11-10T12:21:51.139Z,81.40
2022-11-10T12:25:02.914Z,81.16
2022-11-10T12:28:20.443Z,81.30
2022-11-10T12:31:12.493Z,81.95
2022-11-10T12:34:04.179Z,81.94
2022-11-10T12:36:50.718Z,82.95
2022-11-10T12:39:44.125Z,83.11
2022-11-10T12:42:31.288Z,83.69
2022-11-10T12:45:21.333Z,82.31
2022-11-10T12:48:10.708Z,82.80
2022-11-10T12:51:02.129Z,82.31
2022-11-10T12:53:48.465Z,80.63
2022-11-10T12:56:39.177Z,80.77
2022-11-10T12:59:31.142Z,81.75
2022-11-10T13:02:18.884Z,81.68
2022-11-10T13:05:13.595Z,81.30
2022-11-10T13:08:14.423Z,81.12
2022-11-10T13:11:04.114Z,82.51
2022-11-10T13:13:59.722Z,83.07
2022-11-10T13:16:51.794Z,83.07
2022-11-10T13:19:37.988Z,83.09
2022-11-10T13:22:29.997Z,83.47
2022-11-10T13:25:37.868Z,83.11
2022-11-10T13:28:56.587Z,83.44
2022-11-10T13:31:50.611Z,82.99
2022-11-10T13:34:40.565Z,83.15
2022-11-10T13:37:29.414Z,83.95
2022-11-10T13:40:24.873Z,83.65
2022-11-10T13:43:23.641Z,83.33
2022-11-10T13:46:09.950Z,82.86
2022-11-10T13:49:15.645Z,81.89
2022-11-10T13:52:14.003Z,81.45
2022-11-10T13:55:00.233Z,80.51
2022-11-10T13:58:18.165Z,81.09
2022-11-10T14:01:17.120Z,81.62
2022-11-10T14:04:03.823Z,82.67
2022-11-10T14:06:54.558Z,82.23
2022-11-10T14:09:50.676Z,81.57
2022-11-10T14:12:49.037Z,82.59
2022-11-10T14:15:40.162Z,82.36
2022-11-10T14:18:39.531Z,82.23
2022-11-10T14:21:44.378Z,82.10
2022-11-10T14:24:54.611Z,82.32
2022-11-10T14:27:41.266Z,82.53
2022-11-10T14:30:28.992Z,81.51
2022-11-10T14:33:15.463Z,80.20
2022-11-10T14:36:04.465Z,80.34
2022-11-10T14:38:52.224Z,80.84
2022-11-10T14:41:46.250Z,82.65
2022-11-10T14:44:34.045Z,82.83
2022-11-10T14:47:28.609Z,83.11
2022-11-10T14:50:15.143Z,83.41
2022-11-10T14:53:12.549Z,82.92
2022-11-10T14:56:00.048Z,82.59
2022-11-10T14:58:47.146Z,82.83
2022-11-10T15:01:33.112Z,83.44
2022-11-10T15:04:19.768Z,82.73
2022-11-10T15:07:06.059Z,82.85
2022-11-10T15:10:15.796Z,83.31
2022-11-10T15:13:14.030Z,83.04
2022-11-10T15:16:31.836Z,82.93
2022-11-10T15:19:46.499Z,83.35
2022-11-10T15:22:36.364Z,84.38
2022-11-10T15:25:24.089Z,84.45
2022-11-10T15:28:13.457Z,84.47
2022-11-10T15:31:04.730Z,84.70
2022-11-10T15:33:54.126Z,84.65
2022-11-10T15:36:40.061Z,84.75
2022-11-10T15:39:26.756Z,84.29
2022-11-10T15:42:18.733Z,83.74
2022-11-10T15:45:05.552Z,83.87
2022-11-10T15:47:51.700Z,84.48
2022-11-10T15:50:38.309Z,84.32
2022-11-10T15:53:33.230Z,84.09
2022-11-10T15:56:21.365Z,83.79
2022-11-10T15:59:10.222Z,84.25
2022-11-10T16:01:57.561Z,85.06
2022-11-10T16:04:43.922Z,85.00
2022-11-10T16:07:30.018Z,84.90
2022-11-10T16:10:16.193Z,84.90
2022-11-10T16:13:02.242Z,85.01
2022-11-10T16:15:48.606Z,84.90
2022-11-10T16:18:38.861Z,84.95
2022-11-10T16:21:27.402Z,85.47
2022-11-10T16:24:13.329Z,85.64
2022-11-10T16:26:59.284Z,86.00
2022-11-10T16:29:45.973Z,86.36
2022-11-10T16:32:32.066Z,85.78
2022-11-10T16:35:17.983Z,85.86
2022-11-10T16:38:10.788Z,85.78
2022-11-10T16:41:00.979Z,86.04
2022-11-10T16:43:47.363Z,87.11
2022-11-10T16:46:36.306Z,87.01
2022-11-10T16:49:31.279Z,86.89
2022-11-10T16:52:19.039Z,87.09
2022-11-10T16:55:05.705Z,86.58
2022-11-10T16:57:51.601Z,88.35
2022-11-10T17:00:38.330Z,88.67
2022-11-10T17:03:36.421Z,88.75
2022-11-10T17:06:25.090Z,89.86
2022-11-10T17:09:18.165Z,90.35
2022-11-10T17:12:04.848Z,89.45
2022-11-10T17:14:50.976Z,89.01
2022-11-10T17:17:37.371Z,88.99
2022-11-10T17:20:28.679Z,89.05
2022-11-10T17:23:16.511Z,90.53
2022-11-10T17:26:03.100Z,89.77
2022-11-10T17:28:49.711Z,89.98
2022-11-10T17:31:35.858Z,90.90
2022-11-10T17:34:22.032Z,90.02
2022-11-10T17:37:12.404Z,90.18
2022-11-10T17:39:59.055Z,90.12
2022-11-10T17:42:45.416Z,90.60
2022-11-10T17:45:31.645Z,89.85
2022-11-10T17:48:20.861Z,89.89
2022-11-10T17:51:11.921Z,90.24
2022-11-10T17:53:57.832Z,90.72
2022-11-10T17:56:43.995Z,90.85
2022-11-10T17:59:30.533Z,91.13
2022-11-10T18:02:20.050Z,90.96
2022-11-10T18:05:06.957Z,90.49
2022-11-10T18:07:53.190Z,91.05
2022-11-10T18:10:50.179Z,90.18
2022-11-10T18:13:40.890Z,90.75
2022-11-10T18:16:27.209Z,90.04
2022-11-10T18:19:16.096Z,89.87
2022-11-10T18:22:02.368Z,90.03
2022-11-10T18:24:48.954Z,89.74
2022-11-10T18:27:35.824Z,90.45
2022-11-10T18:30:22.028Z,90.72
2022-11-10T18:33:09.620Z,90.34
2022-11-10T18:36:03.793Z,90.92
2022-11-10T18:38:50.237Z,90.74
2022-11-10T18:41:36.235Z,90.96
2022-11-10T18:44:22.462Z,90.67
2022-11-10T18:47:11.737Z,89.56
2022-11-10T18:49:58.455Z,90.13
2022-11-10T18:52:45.229Z,90.34
2022-11-10T18:55:31.534Z,90.69
2022-11-10T18:58:17.955Z,89.65
2022-11-10T19:01:11.568Z,89.03
2022-11-10T19:03:58.042Z,90.64
2022-11-10T19:06:44.317Z,91.41
2022-11-10T19:09:30.961Z,90.93
2022-11-10T19:12:16.963Z,90.51
2022-11-10T19:15:03.543Z,89.00
2022-11-10T19:17:50.134Z,88.66
2022-11-10T19:20:36.786Z,90.47
2022-11-10T19:23:23.318Z,90.93
2022-11-10T19:26:20.856Z,91.08
2022-11-10T19:29:10.391Z,91.80
2022-11-10T19:31:57.656Z,88.57
2022-11-10T19:34:44.670Z,90.41
2022-11-10T19:37:34.618Z,90.36
2022-11-10T19:40:21.735Z,90.65
2022-11-10T19:43:08.137Z,91.64
2022-11-10T19:45:54.355Z,91.57
2022-11-10T19:48:40.795Z,90.32
2022-11-10T19:51:29.945Z,90.09
2022-11-10T19:54:16.087Z,90.32
2022-11-10T19:57:02.325Z,89.42
2022-11-10T19:59:48.877Z,88.71
2022-11-10T20:02:35.317Z,88.55
2022-11-10T20:05:21.671Z,88.57
2022-11-10T20:08:10.519Z,88.66
2022-11-10T20:11:02.834Z,89.42
2022-11-10T20:13:54.495Z,89.65
2022-11-10T20:16:41.122Z,89.93
2022-11-10T20:19:27.288Z,90.51
2022-11-10T20:22:13.568Z,90.00
2022-11-10T20:24:59.620Z,90.26
2022-11-10T20:27:46.013Z,90.57
2022-11-10T20:30:34.952Z,89.88
2022-11-10T20:33:21.560Z,90.64
2022-11-10T20:36:19.911Z,89.49
2022-11-10T20:39:06.954Z,89.44
2022-11-10T20:41:52.831Z,89.42
2022-11-10T20:44:40.647Z,89.86
2022-11-10T20:47:30.058Z,90.06
2022-11-10T20:50:20.462Z,89.41
2022-11-10T20:53:10.219Z,89.87
2022-11-10T20:55:58.612Z,90.13
2022-11-10T20:58:45.010Z,90.12
2022-11-10T21:01:31.477Z,89.76
2022-11-10T21:04:17.462Z,90.15
2022-11-10T21:07:03.934Z,90.55
2022-11-10T21:09:50.272Z,90.94
2022-11-10T21:12:36.469Z,91.11
2022-11-10T21:15:22.698Z,91.04
2022-11-10T21:18:09.388Z,91.71
2022-11-10T21:20:57.632Z,91.10
2022-11-10T21:23:43.700Z,91.83
2022-11-10T21:26:34.227Z,91.31
2022-11-10T21:29:20.585Z,91.65
2022-11-10T21:32:06.479Z,91.85
2022-11-10T21:34:52.593Z,90.97
2022-11-10T21:37:38.551Z,90.33
2022-11-10T21:40:24.624Z,90.20
2022-11-10T21:43:10.714Z,91.54
2022-11-10T21:46:00.287Z,92.19
2022-11-10T21:48:46.685Z,92.08
2022-11-10T21:51:32.863Z,90.57
2022-11-10T21:54:19.118Z,91.41
2022-11-10T21:57:05.002Z,90.87
2022-11-10T21:59:51.357Z,91.02
2022-11-10T22:02:37.034Z,91.73
2022-11-10T22:05:22.950Z,91.36
2022-11-10T22:08:09.065Z,91.65
2022-11-10T22:10:55.216Z,90.76
2022-11-10T22:13:41.479Z,90.43
2022-11-10T22:16:44.386Z,91.10
2022-11-10T22:19:31.272Z,91.26
2022-11-10T22:22:17.197Z,91.69
2022-11-10T22:25:03.243Z,91.75
2022-11-10T22:27:49.402Z,92.21
2022-11-10T22:30:36.619Z,92.24
2022-11-10T22:33:22.911Z,92.43
2022-11-10T22:36:12.724Z,91.63
2022-11-10T22:39:03.171Z,92.21
2022-11-10T22:41:49.953Z,92.84
2022-11-10T22:44:36.271Z,92.36
2022-11-10T22:47:22.309Z,92.57
2022-11-10T22:50:08.729Z,92.19
2022-11-10T22:52:57.254Z,92.11
2022-11-10T22:55:43.180Z,92.00
2022-11-10T22:58:29.322Z,91.79
2022-11-10T23:01:15.373Z,92.47
2022-11-10T23:04:01.747Z,93.24
2022-11-10T23:06:47.821Z,92.74
2022-11-10T23:09:35.026Z,92.32
2022-11-10T23:12:20.974Z,92.72
2022-11-10T23:15:07.529Z,92.32
2022-11-10T23:17:54.367Z,91.79
2022-11-10T23:20:40.280Z,91.25
2022-11-10T23:23:27.403Z,90.42
2022-11-10T23:26:18.970Z,91.25
2022-11-10T23:29:04.927Z,91.46
2022-11-10T23:31:50.739Z,92.30
2022-11-10T23:34:36.642Z,91.53
2022-11-10T23:37:23.320Z,90.01
2022-11-10T23:40:09.793Z,89.88
2022-11-10T23:42:57.782Z,90.27
2022-11-10T23:46:05.751Z,91.16
2022-11-10T23:48:49.568Z,91.71
2022-11-10T23:51:35.771Z,91.60
2022-11-10T23:54:21.928Z,89.89
2022-11-10T23:57:07.890Z,89.89
2022-11-10T23:59:53.993Z,90.67
